sensor_id;sensor_type;location;lat;lon;timestamp;pressure;altitude;pressure_sealevel;temperature;humidity
40372;BME280;28564;53.346;-6.554;2023-02-18T00:00:17;100929.47;;;13.91;53.39
40372;BME280;28564;53.346;-6.554;2023-02-18T00:02:46;100928.15;;;14.18;53.35
40372;BME280;28564;53.346;-6.554;2023-02-18T00:05:14;100931.61;;;14.17;53.48
40372;BME280;28564;53.346;-6.554;2023-02-18T00:07:42;100927.83;;;14.17;53.45
40372;BME280;28564;53.346;-6.554;2023-02-18T00:10:11;100928.95;;;14.12;53.70
40372;BME280;28564;53.346;-6.554;2023-02-18T00:12:39;100924.51;;;14.06;54.01
40372;BME280;28564;53.346;-6.554;2023-02-18T00:15:06;100916.36;;;13.74;54.16
40372;BME280;28564;53.346;-6.554;2023-02-18T00:17:34;100914.72;;;13.99;54.32
40372;BME280;28564;53.346;-6.554;2023-02-18T00:20:01;100913.07;;;13.68;54.33
40372;BME280;28564;53.346;-6.554;2023-02-18T00:22:28;100911.75;;;13.94;54.54
40372;BME280;28564;53.346;-6.554;2023-02-18T00:24:55;100904.17;;;14.19;54.46
40372;BME280;28564;53.346;-6.554;2023-02-18T00:27:22;100905.22;;;13.93;54.68
40372;BME280;28564;53.346;-6.554;2023-02-18T00:29:49;100901.11;;;14.12;55.00
40372;BME280;28564;53.346;-6.554;2023-02-18T00:32:16;100901.94;;;13.88;55.30
40372;BME280;28564;53.346;-6.554;2023-02-18T00:34:44;100902.34;;;13.80;55.66
40372;BME280;28564;53.346;-6.554;2023-02-18T00:37:11;100899.36;;;13.81;55.89
40372;BME280;28564;53.346;-6.554;2023-02-18T00:39:38;100898.24;;;14.00;56.19
40372;BME280;28564;53.346;-6.554;2023-02-18T00:42:05;100897.54;;;13.76;56.44
40372;BME280;28564;53.346;-6.554;2023-02-18T00:44:32;100906.30;;;13.75;56.61
40372;BME280;28564;53.346;-6.554;2023-02-18T00:46:59;100907.17;;;13.76;56.61
40372;BME280;28564;53.346;-6.554;2023-02-18T00:49:26;100903.16;;;13.76;56.75
40372;BME280;28564;53.346;-6.554;2023-02-18T00:51:54;100903.66;;;13.75;56.92
40372;BME280;28564;53.346;-6.554;2023-02-18T00:54:21;100904.39;;;13.94;57.18
40372;BME280;28564;53.346;-6.554;2023-02-18T00:56:48;100900.96;;;13.71;57.42
40372;BME280;28564;53.346;-6.554;2023-02-18T00:59:15;100898.11;;;13.67;57.68
40372;BME280;28564;53.346;-6.554;2023-02-18T01:01:42;100905.38;;;13.66;58.00
40372;BME280;28564;53.346;-6.554;2023-02-18T01:04:09;100904.47;;;13.89;58.09
40372;BME280;28564;53.346;-6.554;2023-02-18T01:06:37;100892.15;;;13.71;58.05
40372;BME280;28564;53.346;-6.554;2023-02-18T01:09:05;100891.11;;;13.44;58.24
40372;BME280;28564;53.346;-6.554;2023-02-18T01:11:32;100890.82;;;13.44;58.40
40372;BME280;28564;53.346;-6.554;2023-02-18T01:13:59;100894.03;;;13.67;58.71
40372;BME280;28564;53.346;-6.554;2023-02-18T01:16:26;100882.26;;;13.91;58.88
40372;BME280;28564;53.346;-6.554;2023-02-18T01:18:53;100886.31;;;13.71;58.98
40372;BME280;28564;53.346;-6.554;2023-02-18T01:21:21;100888.24;;;13.74;59.09
40372;BME280;28564;53.346;-6.554;2023-02-18T01:23:48;100891.28;;;13.74;59.22
40372;BME280;28564;53.346;-6.554;2023-02-18T01:26:15;100888.43;;;13.78;59.23
40372;BME280;28564;53.346;-6.554;2023-02-18T01:28:42;100889.70;;;13.77;59.52
40372;BME280;28564;53.346;-6.554;2023-02-18T01:31:11;100892.88;;;13.83;59.46
40372;BME280;28564;53.346;-6.554;2023-02-18T01:33:40;100880.15;;;13.82;59.53
40372;BME280;28564;53.346;-6.554;2023-02-18T01:36:08;100885.85;;;13.84;59.68
40372;BME280;28564;53.346;-6.554;2023-02-18T01:38:36;100873.25;;;13.87;59.65
40372;BME280;28564;53.346;-6.554;2023-02-18T01:41:03;100878.66;;;13.90;59.64
40372;BME280;28564;53.346;-6.554;2023-02-18T01:43:31;100884.87;;;13.92;59.75
40372;BME280;28564;53.346;-6.554;2023-02-18T01:46:10;100884.93;;;14.14;59.88
40372;BME280;28564;53.346;-6.554;2023-02-18T01:48:41;100883.62;;;13.92;59.96
40372;BME280;28564;53.346;-6.554;2023-02-18T01:51:12;100881.57;;;13.93;60.08
40372;BME280;28564;53.346;-6.554;2023-02-18T01:53:46;100885.46;;;13.93;60.24
40372;BME280;28564;53.346;-6.554;2023-02-18T01:56:19;100884.63;;;13.64;60.43
40372;BME280;28564;53.346;-6.554;2023-02-18T01:58:49;100892.27;;;13.72;60.34
40372;BME280;28564;53.346;-6.554;2023-02-18T02:01:18;100888.60;;;13.71;60.38
40372;BME280;28564;53.346;-6.554;2023-02-18T02:03:45;100892.61;;;13.96;60.47
40372;BME280;28564;53.346;-6.554;2023-02-18T02:06:17;100895.60;;;13.95;60.63
40372;BME280;28564;53.346;-6.554;2023-02-18T02:08:47;100890.21;;;13.48;60.60
40372;BME280;28564;53.346;-6.554;2023-02-18T02:11:22;100887.19;;;13.99;60.62
40372;BME280;28564;53.346;-6.554;2023-02-18T02:14:03;100899.08;;;14.04;60.65
40372;BME280;28564;53.346;-6.554;2023-02-18T02:16:39;100898.04;;;13.78;60.63
40372;BME280;28564;53.346;-6.554;2023-02-18T02:19:31;100895.14;;;14.04;60.66
40372;BME280;28564;53.346;-6.554;2023-02-18T02:22:54;100896.30;;;14.03;60.72
40372;BME280;28564;53.346;-6.554;2023-02-18T02:25:46;100901.56;;;13.78;60.76
40372;BME280;28564;53.346;-6.554;2023-02-18T02:28:43;100894.71;;;14.25;60.79
40372;BME280;28564;53.346;-6.554;2023-02-18T02:31:38;100892.12;;;14.03;60.82
40372;BME280;28564;53.346;-6.554;2023-02-18T02:34:47;100895.60;;;13.61;60.72
40372;BME280;28564;53.346;-6.554;2023-02-18T02:37:21;100896.58;;;14.09;60.75
40372;BME280;28564;53.346;-6.554;2023-02-18T02:40:03;100885.66;;;14.10;60.70
40372;BME280;28564;53.346;-6.554;2023-02-18T02:42:43;100889.13;;;14.11;60.64
40372;BME280;28564;53.346;-6.554;2023-02-18T02:45:17;100912.27;;;14.11;60.63
40372;BME280;28564;53.346;-6.554;2023-02-18T02:47:54;100908.66;;;14.07;60.48
40372;BME280;28564;53.346;-6.554;2023-02-18T02:50:31;100903.62;;;14.25;60.33
40372;BME280;28564;53.346;-6.554;2023-02-18T02:53:08;100922.68;;;14.04;60.37
40372;BME280;28564;53.346;-6.554;2023-02-18T02:55:37;100922.70;;;13.82;60.30
40372;BME280;28564;53.346;-6.554;2023-02-18T02:58:04;100911.57;;;14.33;60.22
40372;BME280;28564;53.346;-6.554;2023-02-18T03:00:46;100914.87;;;13.84;60.10
40372;BME280;28564;53.346;-6.554;2023-02-18T03:03:39;100931.53;;;14.10;59.89
40372;BME280;28564;53.346;-6.554;2023-02-18T03:06:22;100941.60;;;14.04;59.67
40372;BME280;28564;53.346;-6.554;2023-02-18T03:08:59;100978.27;;;13.95;59.28
40372;BME280;28564;53.346;-6.554;2023-02-18T03:11:41;100952.55;;;13.89;58.62
40372;BME280;28564;53.346;-6.554;2023-02-18T03:14:12;100943.87;;;14.08;58.19
40372;BME280;28564;53.346;-6.554;2023-02-18T03:16:48;100948.83;;;13.75;57.82
40372;BME280;28564;53.346;-6.554;2023-02-18T03:19:21;100953.59;;;13.92;57.49
40372;BME280;28564;53.346;-6.554;2023-02-18T03:21:54;100948.57;;;13.67;57.40
40372;BME280;28564;53.346;-6.554;2023-02-18T03:24:27;100953.71;;;13.65;57.31
40372;BME280;28564;53.346;-6.554;2023-02-18T03:27:01;100949.14;;;13.86;57.17
40372;BME280;28564;53.346;-6.554;2023-02-18T03:29:30;100956.38;;;13.81;56.73
40372;BME280;28564;53.346;-6.554;2023-02-18T03:32:03;100957.36;;;13.50;56.26
40372;BME280;28564;53.346;-6.554;2023-02-18T03:34:34;100957.93;;;13.69;56.32
40372;BME280;28564;53.346;-6.554;2023-02-18T03:37:04;100952.38;;;13.71;56.19
40372;BME280;28564;53.346;-6.554;2023-02-18T03:39:34;100964.28;;;13.48;55.95
40372;BME280;28564;53.346;-6.554;2023-02-18T03:42:03;100946.82;;;13.75;55.81
40372;BME280;28564;53.346;-6.554;2023-02-18T03:44:30;100957.30;;;13.48;55.32
40372;BME280;28564;53.346;-6.554;2023-02-18T03:46:57;100956.49;;;13.51;55.48
40372;BME280;28564;53.346;-6.554;2023-02-18T03:49:25;100971.79;;;13.44;54.94
40372;BME280;28564;53.346;-6.554;2023-02-18T03:51:52;100965.95;;;13.54;54.84
40372;BME280;28564;53.346;-6.554;2023-02-18T03:54:19;100972.51;;;13.48;55.02
40372;BME280;28564;53.346;-6.554;2023-02-18T03:56:47;100962.99;;;13.14;55.87
40372;BME280;28564;53.346;-6.554;2023-02-18T03:59:14;100957.32;;;13.43;56.63
40372;BME280;28564;53.346;-6.554;2023-02-18T04:01:41;100973.13;;;13.25;57.20
40372;BME280;28564;53.346;-6.554;2023-02-18T04:04:08;100969.48;;;13.12;57.57
40372;BME280;28564;53.346;-6.554;2023-02-18T04:06:36;100961.97;;;12.94;57.72
40372;BME280;28564;53.346;-6.554;2023-02-18T04:09:03;100955.67;;;12.77;57.61
40372;BME280;28564;53.346;-6.554;2023-02-18T04:11:30;100961.14;;;12.46;57.80
40372;BME280;28564;53.346;-6.554;2023-02-18T04:13:57;100954.77;;;12.62;58.15
40372;BME280;28564;53.346;-6.554;2023-02-18T04:16:24;100952.70;;;12.64;58.18
40372;BME280;28564;53.346;-6.554;2023-02-18T04:18:52;100964.21;;;12.65;58.26
40372;BME280;28564;53.346;-6.554;2023-02-18T04:21:19;100942.22;;;12.62;58.42
40372;BME280;28564;53.346;-6.554;2023-02-18T04:23:46;100929.07;;;12.65;58.36
40372;BME280;28564;53.346;-6.554;2023-02-18T04:26:13;100931.92;;;12.69;58.34
40372;BME280;28564;53.346;-6.554;2023-02-18T04:28:40;100941.75;;;12.99;57.87
40372;BME280;28564;53.346;-6.554;2023-02-18T04:31:07;100936.99;;;12.81;57.52
40372;BME280;28564;53.346;-6.554;2023-02-18T04:33:34;100967.57;;;12.87;57.11
40372;BME280;28564;53.346;-6.554;2023-02-18T04:36:02;100963.72;;;12.92;56.60
40372;BME280;28564;53.346;-6.554;2023-02-18T04:38:29;100942.67;;;12.93;56.27
40372;BME280;28564;53.346;-6.554;2023-02-18T04:40:56;100952.90;;;12.96;56.28
40372;BME280;28564;53.346;-6.554;2023-02-18T04:43:23;100940.58;;;12.99;56.19
40372;BME280;28564;53.346;-6.554;2023-02-18T04:45:50;100934.88;;;13.03;55.98
40372;BME280;28564;53.346;-6.554;2023-02-18T04:48:17;100944.32;;;13.03;55.97
40372;BME280;28564;53.346;-6.554;2023-02-18T04:50:44;100944.76;;;12.79;56.05
40372;BME280;28564;53.346;-6.554;2023-02-18T04:53:12;100942.80;;;12.83;55.98
40372;BME280;28564;53.346;-6.554;2023-02-18T04:55:39;100941.27;;;13.05;55.92
40372;BME280;28564;53.346;-6.554;2023-02-18T04:58:11;100934.49;;;12.84;55.72
40372;BME280;28564;53.346;-6.554;2023-02-18T05:00:38;100938.56;;;12.76;55.51
40372;BME280;28564;53.346;-6.554;2023-02-18T05:03:05;100940.57;;;12.98;55.10
40372;BME280;28564;53.346;-6.554;2023-02-18T05:05:33;100937.80;;;13.14;54.70
40372;BME280;28564;53.346;-6.554;2023-02-18T05:08:00;100948.76;;;13.24;54.52
40372;BME280;28564;53.346;-6.554;2023-02-18T05:10:27;100950.51;;;13.35;54.25
40372;BME280;28564;53.346;-6.554;2023-02-18T05:12:54;100952.22;;;13.35;54.11
40372;BME280;28564;53.346;-6.554;2023-02-18T05:15:21;100952.25;;;13.08;54.14
40372;BME280;28564;53.346;-6.554;2023-02-18T05:17:48;100952.55;;;13.32;54.18
40372;BME280;28564;53.346;-6.554;2023-02-18T05:20:16;100955.54;;;12.83;54.20
40372;BME280;28564;53.346;-6.554;2023-02-18T05:22:43;100960.81;;;13.30;54.20
40372;BME280;28564;53.346;-6.554;2023-02-18T05:25:10;100943.54;;;13.28;54.15
40372;BME280;28564;53.346;-6.554;2023-02-18T05:27:37;100945.37;;;12.74;54.07
40372;BME280;28564;53.346;-6.554;2023-02-18T05:30:05;100958.11;;;13.23;53.88
40372;BME280;28564;53.346;-6.554;2023-02-18T05:32:33;100947.30;;;13.21;53.69
40372;BME280;28564;53.346;-6.554;2023-02-18T05:35:00;100938.03;;;13.19;53.64
40372;BME280;28564;53.346;-6.554;2023-02-18T05:37:27;100934.45;;;13.19;53.53
40372;BME280;28564;53.346;-6.554;2023-02-18T05:39:55;100942.58;;;13.19;53.45
40372;BME280;28564;53.346;-6.554;2023-02-18T05:42:22;100938.38;;;12.89;53.26
40372;BME280;28564;53.346;-6.554;2023-02-18T05:44:49;100943.46;;;13.16;53.13
40372;BME280;28564;53.346;-6.554;2023-02-18T05:47:16;100945.60;;;13.12;53.04
40372;BME280;28564;53.346;-6.554;2023-02-18T05:49:44;100949.99;;;13.13;53.12
40372;BME280;28564;53.346;-6.554;2023-02-18T05:52:11;100948.74;;;13.28;53.00
40372;BME280;28564;53.346;-6.554;2023-02-18T05:54:38;100956.57;;;12.93;53.14
40372;BME280;28564;53.346;-6.554;2023-02-18T05:57:06;100950.99;;;13.06;53.09
40372;BME280;28564;53.346;-6.554;2023-02-18T05:59:33;100951.05;;;13.02;52.98
40372;BME280;28564;53.346;-6.554;2023-02-18T06:02:00;100947.43;;;13.20;52.95
40372;BME280;28564;53.346;-6.554;2023-02-18T06:04:27;100951.37;;;13.20;53.01
40372;BME280;28564;53.346;-6.554;2023-02-18T06:06:54;100949.59;;;13.00;52.83
40372;BME280;28564;53.346;-6.554;2023-02-18T06:09:21;100962.84;;;13.11;52.73
40372;BME280;28564;53.346;-6.554;2023-02-18T06:11:49;100950.35;;;13.13;52.23
40372;BME280;28564;53.346;-6.554;2023-02-18T06:14:16;100949.88;;;13.31;51.91
40372;BME280;28564;53.346;-6.554;2023-02-18T06:16:44;100943.11;;;13.42;51.79
40372;BME280;28564;53.346;-6.554;2023-02-18T06:19:11;100935.71;;;12.99;51.72
40372;BME280;28564;53.346;-6.554;2023-02-18T06:21:38;100932.08;;;13.28;51.59
40372;BME280;28564;53.346;-6.554;2023-02-18T06:24:06;100927.62;;;13.34;51.52
40372;BME280;28564;53.346;-6.554;2023-02-18T06:26:33;100923.42;;;13.18;51.39
40372;BME280;28564;53.346;-6.554;2023-02-18T06:29:00;100917.42;;;13.19;51.25
40372;BME280;28564;53.346;-6.554;2023-02-18T06:31:27;100918.92;;;13.40;51.39
40372;BME280;28564;53.346;-6.554;2023-02-18T06:33:55;100915.93;;;13.12;51.65
40372;BME280;28564;53.346;-6.554;2023-02-18T06:36:22;100913.45;;;13.08;51.87
40372;BME280;28564;53.346;-6.554;2023-02-18T06:38:49;100911.16;;;13.26;51.98
40372;BME280;28564;53.346;-6.554;2023-02-18T06:41:17;100916.97;;;13.52;52.12
40372;BME280;28564;53.346;-6.554;2023-02-18T06:43:44;100923.92;;;13.05;52.04
40372;BME280;28564;53.346;-6.554;2023-02-18T06:46:11;100922.23;;;13.11;52.01
40372;BME280;28564;53.346;-6.554;2023-02-18T06:48:38;100928.39;;;13.38;51.95
40372;BME280;28564;53.346;-6.554;2023-02-18T06:51:05;100919.59;;;13.59;52.01
40372;BME280;28564;53.346;-6.554;2023-02-18T06:53:32;100932.51;;;13.44;52.23
40372;BME280;28564;53.346;-6.554;2023-02-18T06:56:00;100924.43;;;13.27;52.51
40372;BME280;28564;53.346;-6.554;2023-02-18T06:58:27;100931.22;;;13.39;52.70
40372;BME280;28564;53.346;-6.554;2023-02-18T07:00:54;100929.38;;;13.13;52.80
40372;BME280;28564;53.346;-6.554;2023-02-18T07:03:21;100934.83;;;13.26;52.64
40372;BME280;28564;53.346;-6.554;2023-02-18T07:05:49;100937.00;;;13.41;52.49
40372;BME280;28564;53.346;-6.554;2023-02-18T07:08:16;100955.35;;;13.02;52.37
40372;BME280;28564;53.346;-6.554;2023-02-18T07:10:44;100955.15;;;13.30;52.36
40372;BME280;28564;53.346;-6.554;2023-02-18T07:13:11;100966.67;;;13.37;52.40
40372;BME280;28564;53.346;-6.554;2023-02-18T07:15:38;100979.37;;;13.20;52.38
40372;BME280;28564;53.346;-6.554;2023-02-18T07:18:06;100973.64;;;13.44;52.48
40372;BME280;28564;53.346;-6.554;2023-02-18T07:20:33;100977.77;;;13.25;52.54
40372;BME280;28564;53.346;-6.554;2023-02-18T07:23:01;100983.34;;;13.26;52.64
40372;BME280;28564;53.346;-6.554;2023-02-18T07:25:28;100981.32;;;13.46;52.86
40372;BME280;28564;53.346;-6.554;2023-02-18T07:27:55;100992.20;;;13.41;53.19
40372;BME280;28564;53.346;-6.554;2023-02-18T07:30:22;100985.17;;;13.37;53.29
40372;BME280;28564;53.346;-6.554;2023-02-18T07:32:49;100993.37;;;13.11;53.48
40372;BME280;28564;53.346;-6.554;2023-02-18T07:35:17;100984.19;;;13.31;53.52
40372;BME280;28564;53.346;-6.554;2023-02-18T07:37:45;100990.78;;;13.54;53.62
40372;BME280;28564;53.346;-6.554;2023-02-18T07:40:15;100984.83;;;13.24;53.61
40372;BME280;28564;53.346;-6.554;2023-02-18T07:42:42;100984.84;;;12.99;53.68
40372;BME280;28564;53.346;-6.554;2023-02-18T07:45:10;100991.05;;;13.40;53.58
40372;BME280;28564;53.346;-6.554;2023-02-18T07:47:38;100987.41;;;13.08;53.60
40372;BME280;28564;53.346;-6.554;2023-02-18T07:50:06;100993.53;;;12.97;53.74
40372;BME280;28564;53.346;-6.554;2023-02-18T07:52:34;100998.43;;;13.48;54.16
40372;BME280;28564;53.346;-6.554;2023-02-18T07:55:01;101002.55;;;13.05;54.74
40372;BME280;28564;53.346;-6.554;2023-02-18T07:57:28;100999.74;;;13.12;55.26
40372;BME280;28564;53.346;-6.554;2023-02-18T07:59:55;101002.98;;;13.06;55.61
40372;BME280;28564;53.346;-6.554;2023-02-18T08:02:23;101008.80;;;13.00;55.85
40372;BME280;28564;53.346;-6.554;2023-02-18T08:04:50;101007.68;;;13.02;56.04
40372;BME280;28564;53.346;-6.554;2023-02-18T08:07:19;101007.99;;;13.05;56.07
40372;BME280;28564;53.346;-6.554;2023-02-18T08:09:47;101013.77;;;12.87;55.99
40372;BME280;28564;53.346;-6.554;2023-02-18T08:12:14;101016.44;;;13.12;55.86
40372;BME280;28564;53.346;-6.554;2023-02-18T08:14:41;101033.70;;;13.13;55.98
40372;BME280;28564;53.346;-6.554;2023-02-18T08:17:08;101027.11;;;12.91;56.01
40372;BME280;28564;53.346;-6.554;2023-02-18T08:19:36;101028.51;;;13.16;55.87
40372;BME280;28564;53.346;-6.554;2023-02-18T08:22:03;101035.43;;;13.14;56.03
40372;BME280;28564;53.346;-6.554;2023-02-18T08:24:30;101037.26;;;13.15;55.96
40372;BME280;28564;53.346;-6.554;2023-02-18T08:26:58;101043.36;;;13.14;55.88
40372;BME280;28564;53.346;-6.554;2023-02-18T08:29:25;101043.55;;;12.88;56.16
40372;BME280;28564;53.346;-6.554;2023-02-18T08:31:52;101048.65;;;13.00;56.61
40372;BME280;28564;53.346;-6.554;2023-02-18T08:34:19;101046.14;;;12.93;57.11
40372;BME280;28564;53.346;-6.554;2023-02-18T08:36:47;101047.90;;;12.88;57.42
40372;BME280;28564;53.346;-6.554;2023-02-18T08:39:14;101048.09;;;12.86;57.63
40372;BME280;28564;53.346;-6.554;2023-02-18T08:41:41;101041.38;;;12.86;57.70
40372;BME280;28564;53.346;-6.554;2023-02-18T08:44:08;101041.07;;;12.86;57.93
40372;BME280;28564;53.346;-6.554;2023-02-18T08:46:35;101064.33;;;12.88;58.01
40372;BME280;28564;53.346;-6.554;2023-02-18T08:49:03;101047.65;;;12.65;57.84
40372;BME280;28564;53.346;-6.554;2023-02-18T08:51:31;101054.37;;;12.92;57.57
40372;BME280;28564;53.346;-6.554;2023-02-18T08:53:58;101057.52;;;12.90;57.57
40372;BME280;28564;53.346;-6.554;2023-02-18T08:56:25;101061.61;;;12.65;57.68
40372;BME280;28564;53.346;-6.554;2023-02-18T08:58:52;101063.59;;;12.85;57.95
40372;BME280;28564;53.346;-6.554;2023-02-18T09:01:19;101063.69;;;12.61;58.11
40372;BME280;28564;53.346;-6.554;2023-02-18T09:03:46;101067.28;;;12.62;57.99
40372;BME280;28564;53.346;-6.554;2023-02-18T09:06:14;101077.18;;;12.85;58.00
40372;BME280;28564;53.346;-6.554;2023-02-18T09:08:41;101074.10;;;12.87;58.04
40372;BME280;28564;53.346;-6.554;2023-02-18T09:11:10;101073.65;;;12.68;57.87
40372;BME280;28564;53.346;-6.554;2023-02-18T09:13:37;101079.87;;;12.98;58.00
40372;BME280;28564;53.346;-6.554;2023-02-18T09:16:07;101086.00;;;13.05;58.06
40372;BME280;28564;53.346;-6.554;2023-02-18T09:18:35;101088.65;;;13.14;57.81
40372;BME280;28564;53.346;-6.554;2023-02-18T09:21:04;101084.77;;;13.20;57.94
40372;BME280;28564;53.346;-6.554;2023-02-18T09:23:32;101083.46;;;13.03;57.85
40372;BME280;28564;53.346;-6.554;2023-02-18T09:26:02;101080.86;;;12.91;57.77
40372;BME280;28564;53.346;-6.554;2023-02-18T09:28:30;101080.85;;;13.04;57.64
40372;BME280;28564;53.346;-6.554;2023-02-18T09:31:00;101084.05;;;13.21;57.49
40372;BME280;28564;53.346;-6.554;2023-02-18T09:33:29;101084.10;;;13.06;56.67
40372;BME280;28564;53.346;-6.554;2023-02-18T09:35:56;101084.94;;;13.55;55.46
40372;BME280;28564;53.346;-6.554;2023-02-18T09:38:23;101084.75;;;13.48;54.85
40372;BME280;28564;53.346;-6.554;2023-02-18T09:40:52;101089.01;;;13.63;54.37
40372;BME280;28564;53.346;-6.554;2023-02-18T09:43:26;101090.93;;;13.75;53.60
40372;BME280;28564;53.346;-6.554;2023-02-18T09:45:55;101093.67;;;13.61;53.23
40372;BME280;28564;53.346;-6.554;2023-02-18T09:48:26;101091.71;;;13.95;53.42
40372;BME280;28564;53.346;-6.554;2023-02-18T09:50:54;101093.57;;;14.00;52.78
40372;BME280;28564;53.346;-6.554;2023-02-18T09:53:23;101094.34;;;13.89;52.66
40372;BME280;28564;53.346;-6.554;2023-02-18T09:55:53;101095.14;;;14.00;52.95
40372;BME280;28564;53.346;-6.554;2023-02-18T09:58:24;101095.98;;;14.26;52.67
40372;BME280;28564;53.346;-6.554;2023-02-18T10:00:57;101104.12;;;13.99;52.29
40372;BME280;28564;53.346;-6.554;2023-02-18T10:03:26;101106.23;;;14.30;52.22
40372;BME280;28564;53.346;-6.554;2023-02-18T10:05:57;101105.63;;;14.03;52.29
40372;BME280;28564;53.346;-6.554;2023-02-18T10:08:28;101110.51;;;14.05;52.07
40372;BME280;28564;53.346;-6.554;2023-02-18T10:10:55;101113.72;;;14.05;51.96
40372;BME280;28564;53.346;-6.554;2023-02-18T10:13:25;101111.03;;;14.27;51.57
40372;BME280;28564;53.346;-6.554;2023-02-18T10:15:53;101105.94;;;13.80;51.40
40372;BME280;28564;53.346;-6.554;2023-02-18T10:18:25;101103.98;;;14.13;51.64
40372;BME280;28564;53.346;-6.554;2023-02-18T10:21:01;101108.02;;;14.02;51.18
40372;BME280;28564;53.346;-6.554;2023-02-18T10:23:33;101111.12;;;14.07;51.08
40372;BME280;28564;53.346;-6.554;2023-02-18T10:26:03;101113.63;;;14.27;51.03
40372;BME280;28564;53.346;-6.554;2023-02-18T10:28:32;101119.91;;;14.06;50.69
40372;BME280;28564;53.346;-6.554;2023-02-18T10:31:04;101117.05;;;14.51;50.40
40372;BME280;28564;53.346;-6.554;2023-02-18T10:33:34;101119.26;;;14.43;50.18
40372;BME280;28564;53.346;-6.554;2023-02-18T10:36:15;101123.91;;;14.18;50.53
40372;BME280;28564;53.346;-6.554;2023-02-18T10:38:56;101120.78;;;14.00;50.61
40372;BME280;28564;53.346;-6.554;2023-02-18T10:41:33;101121.60;;;14.01;50.46
40372;BME280;28564;53.346;-6.554;2023-02-18T10:44:09;101120.31;;;13.97;50.69
40372;BME280;28564;53.346;-6.554;2023-02-18T10:46:46;101122.12;;;14.38;50.96
40372;BME280;28564;53.346;-6.554;2023-02-18T10:50:27;101122.68;;;13.98;51.65
40372;BME280;28564;53.346;-6.554;2023-02-18T10:52:58;101121.89;;;14.12;51.68
40372;BME280;28564;53.346;-6.554;2023-02-18T10:55:35;101124.40;;;13.74;52.32
40372;BME280;28564;53.346;-6.554;2023-02-18T10:58:03;101130.35;;;13.93;52.66
40372;BME280;28564;53.346;-6.554;2023-02-18T11:00:50;101114.87;;;13.87;53.17
40372;BME280;28564;53.346;-6.554;2023-02-18T11:03:19;101129.42;;;13.83;53.56
40372;BME280;28564;53.346;-6.554;2023-02-18T11:05:50;101128.15;;;13.59;52.66
40372;BME280;28564;53.346;-6.554;2023-02-18T11:08:21;101126.42;;;13.83;52.02
40372;BME280;28564;53.346;-6.554;2023-02-18T11:10:50;101129.41;;;13.82;52.68
40372;BME280;28564;53.346;-6.554;2023-02-18T11:13:24;101118.04;;;13.62;52.01
40372;BME280;28564;53.346;-6.554;2023-02-18T11:15:56;101121.61;;;13.94;51.36
40372;BME280;28564;53.346;-6.554;2023-02-18T11:18:33;101120.98;;;14.03;51.17
40372;BME280;28564;53.346;-6.554;2023-02-18T11:21:05;101115.78;;;13.82;51.00
40372;BME280;28564;53.346;-6.554;2023-02-18T11:23:46;101113.67;;;14.06;50.59
40372;BME280;28564;53.346;-6.554;2023-02-18T11:26:15;101122.86;;;13.99;50.36
40372;BME280;28564;53.346;-6.554;2023-02-18T11:28:45;101114.19;;;13.94;50.76
40372;BME280;28564;53.346;-6.554;2023-02-18T11:31:20;101119.28;;;13.86;51.30
40372;BME280;28564;53.346;-6.554;2023-02-18T11:33:50;101116.03;;;13.75;51.59
40372;BME280;28564;53.346;-6.554;2023-02-18T11:36:23;101114.35;;;13.65;52.21
40372;BME280;28564;53.346;-6.554;2023-02-18T11:38:53;101112.61;;;13.63;52.63
40372;BME280;28564;53.346;-6.554;2023-02-18T11:41:29;101109.89;;;13.63;52.90
40372;BME280;28564;53.346;-6.554;2023-02-18T11:43:57;101121.20;;;13.83;53.32
40372;BME280;28564;53.346;-6.554;2023-02-18T11:46:27;101116.21;;;13.64;53.65
40372;BME280;28564;53.346;-6.554;2023-02-18T11:48:54;101126.32;;;13.74;54.02
40372;BME280;28564;53.346;-6.554;2023-02-18T11:51:24;101126.06;;;13.68;54.14
40372;BME280;28564;53.346;-6.554;2023-02-18T11:53:56;101130.66;;;13.62;54.29
40372;BME280;28564;53.346;-6.554;2023-02-18T11:56:26;101127.24;;;13.91;54.43
40372;BME280;28564;53.346;-6.554;2023-02-18T11:58:54;101125.44;;;13.90;54.66
40372;BME280;28564;53.346;-6.554;2023-02-18T12:01:30;101124.70;;;14.08;54.39
40372;BME280;28564;53.346;-6.554;2023-02-18T12:04:07;101126.73;;;14.39;54.70
40372;BME280;28564;53.346;-6.554;2023-02-18T12:06:38;101130.66;;;14.30;53.73
40372;BME280;28564;53.346;-6.554;2023-02-18T12:09:16;101133.24;;;14.47;53.06
40372;BME280;28564;53.346;-6.554;2023-02-18T12:11:48;101124.24;;;14.56;51.38
40372;BME280;28564;53.346;-6.554;2023-02-18T12:14:18;101125.91;;;14.62;50.50
40372;BME280;28564;53.346;-6.554;2023-02-18T12:16:59;101133.93;;;14.60;50.10
40372;BME280;28564;53.346;-6.554;2023-02-18T12:19:42;101131.90;;;14.51;50.08
40372;BME280;28564;53.346;-6.554;2023-02-18T12:22:20;101142.48;;;14.31;50.42
40372;BME280;28564;53.346;-6.554;2023-02-18T12:25:04;101133.84;;;14.27;49.97
40372;BME280;28564;53.346;-6.554;2023-02-18T12:27:42;101142.19;;;14.33;49.77
40372;BME280;28564;53.346;-6.554;2023-02-18T12:31:29;101142.67;;;14.22;49.42
40372;BME280;28564;53.346;-6.554;2023-02-18T12:34:11;101143.18;;;14.54;50.71
40372;BME280;28564;53.346;-6.554;2023-02-18T12:36:55;101147.58;;;14.11;50.49
40372;BME280;28564;53.346;-6.554;2023-02-18T12:39:34;101148.57;;;14.31;50.16
40372;BME280;28564;53.346;-6.554;2023-02-18T12:42:18;101137.62;;;14.46;49.48
40372;BME280;28564;53.346;-6.554;2023-02-18T12:45:02;101123.43;;;14.36;48.63
40372;BME280;28564;53.346;-6.554;2023-02-18T12:48:02;101126.52;;;14.77;49.02
40372;BME280;28564;53.346;-6.554;2023-02-18T12:50:42;101124.20;;;14.32;48.48
40372;BME280;28564;53.346;-6.554;2023-02-18T12:53:27;101142.72;;;14.29;48.35
40372;BME280;28564;53.346;-6.554;2023-02-18T12:56:05;101102.10;;;14.37;49.04
40372;BME280;28564;53.346;-6.554;2023-02-18T12:58:48;101099.27;;;14.64;49.31